world map with LDV marked

LDV - Airport

This information may not be accurate or current and is not valid for navigation or flight planning. No warranty of fitness for any purpose is made or implied.

flag of Bretagneflag of France

Donate via PayPal

Additional information is available on the NEW Great Circle Mapper

Location
City:  Landivisiau, Bretagne, France
Name:Landivisiau Airport
ICAO / IATA:LFRJ / LDV

Details
Type:Airport (Aerodrome, Airfield)
Use:Military
Latitude:48°31'49"N (48.530278)
Longitude:4°09'05"W (-4.151388)
Elevation:348 ft (106 m)
Runways:1
Longest:8858 × 148 ft (2700 × 45 m)

Time
Timezone:UTC+1 (DST+4)
Local Time:

Weather
METAR:LFRJ  041400Z AUTO 16005KT 9999 OVC011/// 11/09 Q1018 BECMG BKN006 BKN012

Related Locations
Nearby:
Farthest:NZDC: 12125 mi / 19514 km
Dunedin [City Heliport], OTA, NZ

Find:

   beyond  
but within

Other Information
Maps:
Sources:

  


 


Great Circle Mapper   Great Circle Mapper
Great Circle Mapper FAQ   Great Circle Mapper FAQ
  Karl's Home Page
KLSē   KLSē Home
   GC on Facebook
Airlines of the World   Airlines of the World
Donate via PayPal


Copyright © 2004-2019, Karl L. Swartz. All rights reserved.
All trademarks mentioned herein belong to their respective owners.

Please see credits for attribution and copyright information.

Karl Swartz <karl@kls2.com>
  Powered by FreeBSD
Valid HTML 4.01!
Labeled with ICRA
hCard Microformat
Geo Microformat